sensor_id;sensor_type;location;lat;lon;timestamp;P1;durP1;ratioP1;P2;durP2;ratioP2
2748;SDS011;1382;52.142;11.618;2023-12-20T00:00:57;3.30;;;2.20;;
2748;SDS011;1382;52.142;11.618;2023-12-20T00:03:26;2.73;;;2.00;;
2748;SDS011;1382;52.142;11.618;2023-12-20T00:05:52;2.00;;;1.80;;
2748;SDS011;1382;52.142;11.618;2023-12-20T00:08:19;1.67;;;1.57;;
2748;SDS011;1382;52.142;11.618;2023-12-20T00:10:46;2.20;;;2.00;;
2748;SDS011;1382;52.142;11.618;2023-12-20T00:13:13;2.30;;;2.10;;
2748;SDS011;1382;52.142;11.618;2023-12-20T00:15:40;2.10;;;2.00;;
2748;SDS011;1382;52.142;11.618;2023-12-20T00:18:07;1.67;;;1.57;;
2748;SDS011;1382;52.142;11.618;2023-12-20T00:20:35;3.10;;;1.73;;
2748;SDS011;1382;52.142;11.618;2023-12-20T00:23:02;2.20;;;1.97;;
2748;SDS011;1382;52.142;11.618;2023-12-20T00:25:29;2.63;;;2.43;;
2748;SDS011;1382;52.142;11.618;2023-12-20T00:27:56;2.30;;;2.10;;
2748;SDS011;1382;52.142;11.618;2023-12-20T00:30:23;2.57;;;1.83;;
2748;SDS011;1382;52.142;11.618;2023-12-20T00:32:50;1.40;;;1.30;;
2748;SDS011;1382;52.142;11.618;2023-12-20T00:35:17;2.30;;;2.10;;
2748;SDS011;1382;52.142;11.618;2023-12-20T00:37:46;2.47;;;2.27;;
2748;SDS011;1382;52.142;11.618;2023-12-20T00:40:13;2.17;;;2.00;;
2748;SDS011;1382;52.142;11.618;2023-12-20T00:42:43;2.70;;;1.97;;
2748;SDS011;1382;52.142;11.618;2023-12-20T00:45:10;1.73;;;1.63;;
2748;SDS011;1382;52.142;11.618;2023-12-20T00:47:37;2.17;;;1.97;;
2748;SDS011;1382;52.142;11.618;2023-12-20T00:50:05;2.43;;;2.13;;
2748;SDS011;1382;52.142;11.618;2023-12-20T00:52:32;1.83;;;1.53;;
2748;SDS011;1382;52.142;11.618;2023-12-20T00:55:01;2.47;;;2.27;;
2748;SDS011;1382;52.142;11.618;2023-12-20T00:57:27;2.30;;;2.10;;
2748;SDS011;1382;52.142;11.618;2023-12-20T00:59:54;2.40;;;2.20;;
2748;SDS011;1382;52.142;11.618;2023-12-20T01:02:21;2.17;;;2.03;;
2748;SDS011;1382;52.142;11.618;2023-12-20T01:04:48;2.30;;;2.10;;
2748;SDS011;1382;52.142;11.618;2023-12-20T01:07:16;2.67;;;2.47;;
2748;SDS011;1382;52.142;11.618;2023-12-20T01:09:43;2.13;;;2.00;;
2748;SDS011;1382;52.142;11.618;2023-12-20T01:12:11;2.60;;;2.40;;
2748;SDS011;1382;52.142;11.618;2023-12-20T01:14:38;2.80;;;2.50;;
2748;SDS011;1382;52.142;11.618;2023-12-20T01:17:05;3.50;;;2.03;;
2748;SDS011;1382;52.142;11.618;2023-12-20T01:19:32;2.10;;;2.00;;
2748;SDS011;1382;52.142;11.618;2023-12-20T01:21:59;2.50;;;1.80;;
2748;SDS011;1382;52.142;11.618;2023-12-20T01:24:26;9.93;;;2.70;;
2748;SDS011;1382;52.142;11.618;2023-12-20T01:26:52;2.00;;;1.83;;
2748;SDS011;1382;52.142;11.618;2023-12-20T01:29:21;4.37;;;2.10;;
2748;SDS011;1382;52.142;11.618;2023-12-20T01:31:48;2.23;;;2.03;;
2748;SDS011;1382;52.142;11.618;2023-12-20T01:34:15;2.43;;;2.20;;
2748;SDS011;1382;52.142;11.618;2023-12-20T01:36:42;2.50;;;2.30;;
2748;SDS011;1382;52.142;11.618;2023-12-20T01:39:09;3.00;;;2.70;;
2748;SDS011;1382;52.142;11.618;2023-12-20T01:41:50;2.60;;;2.40;;
2748;SDS011;1382;52.142;11.618;2023-12-20T01:44:17;2.53;;;2.33;;
2748;SDS011;1382;52.142;11.618;2023-12-20T01:46:45;3.47;;;2.23;;
2748;SDS011;1382;52.142;11.618;2023-12-20T01:49:13;3.60;;;3.30;;
2748;SDS011;1382;52.142;11.618;2023-12-20T01:51:40;2.83;;;2.33;;
2748;SDS011;1382;52.142;11.618;2023-12-20T01:54:08;2.90;;;2.33;;
2748;SDS011;1382;52.142;11.618;2023-12-20T01:56:35;3.53;;;1.90;;
2748;SDS011;1382;52.142;11.618;2023-12-20T01:59:02;2.60;;;2.17;;
2748;SDS011;1382;52.142;11.618;2023-12-20T02:01:29;3.03;;;1.90;;
2748;SDS011;1382;52.142;11.618;2023-12-20T02:03:58;6.67;;;1.80;;
2748;SDS011;1382;52.142;11.618;2023-12-20T02:06:25;7.17;;;2.10;;
2748;SDS011;1382;52.142;11.618;2023-12-20T02:08:56;3.77;;;1.73;;
2748;SDS011;1382;52.142;11.618;2023-12-20T02:11:23;2.93;;;1.33;;
2748;SDS011;1382;52.142;11.618;2023-12-20T02:13:51;1.60;;;1.20;;
2748;SDS011;1382;52.142;11.618;2023-12-20T02:16:18;2.50;;;1.27;;
2748;SDS011;1382;52.142;11.618;2023-12-20T02:18:45;3.10;;;1.30;;
2748;SDS011;1382;52.142;11.618;2023-12-20T02:21:13;3.40;;;0.90;;
2748;SDS011;1382;52.142;11.618;2023-12-20T02:23:42;2.93;;;0.93;;
2748;SDS011;1382;52.142;11.618;2023-12-20T02:26:09;3.83;;;1.20;;
2748;SDS011;1382;52.142;11.618;2023-12-20T02:28:36;5.37;;;1.10;;
2748;SDS011;1382;52.142;11.618;2023-12-20T02:31:03;8.43;;;1.90;;
2748;SDS011;1382;52.142;11.618;2023-12-20T02:33:30;2.87;;;1.57;;
2748;SDS011;1382;52.142;11.618;2023-12-20T02:35:57;12.77;;;1.40;;
2748;SDS011;1382;52.142;11.618;2023-12-20T02:38:24;13.10;;;2.50;;
2748;SDS011;1382;52.142;11.618;2023-12-20T02:40:52;7.63;;;2.27;;
2748;SDS011;1382;52.142;11.618;2023-12-20T02:43:19;4.30;;;1.53;;
2748;SDS011;1382;52.142;11.618;2023-12-20T02:45:45;9.80;;;2.03;;
2748;SDS011;1382;52.142;11.618;2023-12-20T02:48:12;4.50;;;1.70;;
2748;SDS011;1382;52.142;11.618;2023-12-20T02:50:39;7.53;;;2.00;;
2748;SDS011;1382;52.142;11.618;2023-12-20T02:53:06;8.73;;;2.27;;
2748;SDS011;1382;52.142;11.618;2023-12-20T02:55:33;10.43;;;2.33;;
2748;SDS011;1382;52.142;11.618;2023-12-20T02:58:01;5.60;;;1.70;;
2748;SDS011;1382;52.142;11.618;2023-12-20T03:00:28;7.00;;;2.23;;
2748;SDS011;1382;52.142;11.618;2023-12-20T03:02:54;10.37;;;2.27;;
2748;SDS011;1382;52.142;11.618;2023-12-20T03:05:21;8.80;;;2.30;;
2748;SDS011;1382;52.142;11.618;2023-12-20T03:07:48;7.77;;;2.70;;
2748;SDS011;1382;52.142;11.618;2023-12-20T03:10:15;15.17;;;3.00;;
2748;SDS011;1382;52.142;11.618;2023-12-20T03:12:51;5.20;;;2.50;;
2748;SDS011;1382;52.142;11.618;2023-12-20T03:15:20;7.57;;;2.27;;
2748;SDS011;1382;52.142;11.618;2023-12-20T03:17:46;6.40;;;2.20;;
2748;SDS011;1382;52.142;11.618;2023-12-20T03:20:13;18.33;;;2.97;;
2748;SDS011;1382;52.142;11.618;2023-12-20T03:22:40;3.57;;;1.73;;
2748;SDS011;1382;52.142;11.618;2023-12-20T03:25:07;6.43;;;1.70;;
2748;SDS011;1382;52.142;11.618;2023-12-20T03:27:36;6.63;;;1.80;;
2748;SDS011;1382;52.142;11.618;2023-12-20T03:30:04;6.77;;;2.17;;
2748;SDS011;1382;52.142;11.618;2023-12-20T03:32:33;8.07;;;1.70;;
2748;SDS011;1382;52.142;11.618;2023-12-20T03:35:00;5.97;;;2.77;;
2748;SDS011;1382;52.142;11.618;2023-12-20T03:37:27;9.07;;;2.93;;
2748;SDS011;1382;52.142;11.618;2023-12-20T03:39:54;10.60;;;2.60;;
2748;SDS011;1382;52.142;11.618;2023-12-20T03:42:22;11.37;;;2.30;;
2748;SDS011;1382;52.142;11.618;2023-12-20T03:44:49;8.00;;;2.40;;
2748;SDS011;1382;52.142;11.618;2023-12-20T03:47:16;6.63;;;2.13;;
2748;SDS011;1382;52.142;11.618;2023-12-20T03:49:44;11.50;;;2.27;;
2748;SDS011;1382;52.142;11.618;2023-12-20T03:52:11;6.47;;;2.30;;
2748;SDS011;1382;52.142;11.618;2023-12-20T03:54:38;14.33;;;2.20;;
2748;SDS011;1382;52.142;11.618;2023-12-20T03:57:06;9.10;;;3.60;;
2748;SDS011;1382;52.142;11.618;2023-12-20T03:59:34;10.00;;;3.40;;
2748;SDS011;1382;52.142;11.618;2023-12-20T04:02:01;12.20;;;2.70;;
2748;SDS011;1382;52.142;11.618;2023-12-20T04:04:28;4.33;;;2.67;;
2748;SDS011;1382;52.142;11.618;2023-12-20T04:06:56;7.40;;;3.20;;
2748;SDS011;1382;52.142;11.618;2023-12-20T04:09:25;6.53;;;2.97;;
2748;SDS011;1382;52.142;11.618;2023-12-20T04:11:52;4.73;;;2.10;;
2748;SDS011;1382;52.142;11.618;2023-12-20T04:14:19;12.50;;;2.47;;
2748;SDS011;1382;52.142;11.618;2023-12-20T04:16:45;3.77;;;1.80;;
2748;SDS011;1382;52.142;11.618;2023-12-20T04:19:16;12.00;;;2.83;;
2748;SDS011;1382;52.142;11.618;2023-12-20T04:21:43;4.30;;;2.00;;
2748;SDS011;1382;52.142;11.618;2023-12-20T04:24:11;4.63;;;2.27;;
2748;SDS011;1382;52.142;11.618;2023-12-20T04:26:38;3.80;;;2.10;;
2748;SDS011;1382;52.142;11.618;2023-12-20T04:29:05;6.50;;;2.33;;
2748;SDS011;1382;52.142;11.618;2023-12-20T04:31:31;7.77;;;2.67;;
2748;SDS011;1382;52.142;11.618;2023-12-20T04:33:58;7.20;;;2.47;;
2748;SDS011;1382;52.142;11.618;2023-12-20T04:36:25;3.87;;;2.07;;
2748;SDS011;1382;52.142;11.618;2023-12-20T04:38:52;5.17;;;2.30;;
2748;SDS011;1382;52.142;11.618;2023-12-20T04:41:21;8.97;;;2.17;;
2748;SDS011;1382;52.142;11.618;2023-12-20T04:43:48;12.70;;;2.97;;
2748;SDS011;1382;52.142;11.618;2023-12-20T04:46:14;8.00;;;2.33;;
2748;SDS011;1382;52.142;11.618;2023-12-20T04:48:41;7.53;;;2.23;;
2748;SDS011;1382;52.142;11.618;2023-12-20T04:51:08;6.73;;;1.80;;
2748;SDS011;1382;52.142;11.618;2023-12-20T04:53:35;14.67;;;2.33;;
2748;SDS011;1382;52.142;11.618;2023-12-20T04:56:02;9.50;;;1.90;;
2748;SDS011;1382;52.142;11.618;2023-12-20T04:58:30;7.93;;;2.10;;
2748;SDS011;1382;52.142;11.618;2023-12-20T05:00:57;2.93;;;1.70;;
2748;SDS011;1382;52.142;11.618;2023-12-20T05:03:24;11.50;;;2.57;;
2748;SDS011;1382;52.142;11.618;2023-12-20T05:05:51;3.37;;;1.73;;
2748;SDS011;1382;52.142;11.618;2023-12-20T05:08:18;8.17;;;2.50;;
2748;SDS011;1382;52.142;11.618;2023-12-20T05:10:45;3.37;;;1.53;;
2748;SDS011;1382;52.142;11.618;2023-12-20T05:13:12;7.97;;;2.63;;
2748;SDS011;1382;52.142;11.618;2023-12-20T05:15:40;5.47;;;1.40;;
2748;SDS011;1382;52.142;11.618;2023-12-20T05:18:07;6.27;;;1.93;;
2748;SDS011;1382;52.142;11.618;2023-12-20T05:20:34;6.07;;;1.80;;
2748;SDS011;1382;52.142;11.618;2023-12-20T05:23:01;6.20;;;2.20;;
2748;SDS011;1382;52.142;11.618;2023-12-20T05:25:28;6.00;;;1.53;;
2748;SDS011;1382;52.142;11.618;2023-12-20T05:27:55;17.27;;;2.67;;
2748;SDS011;1382;52.142;11.618;2023-12-20T05:30:22;6.10;;;2.03;;
2748;SDS011;1382;52.142;11.618;2023-12-20T05:32:51;4.17;;;1.40;;
2748;SDS011;1382;52.142;11.618;2023-12-20T05:35:18;3.20;;;1.30;;
2748;SDS011;1382;52.142;11.618;2023-12-20T05:37:45;8.90;;;1.83;;
2748;SDS011;1382;52.142;11.618;2023-12-20T05:40:12;4.00;;;1.33;;
2748;SDS011;1382;52.142;11.618;2023-12-20T05:42:39;3.93;;;1.87;;
2748;SDS011;1382;52.142;11.618;2023-12-20T05:45:06;3.63;;;1.90;;
2748;SDS011;1382;52.142;11.618;2023-12-20T05:47:33;4.70;;;1.90;;
2748;SDS011;1382;52.142;11.618;2023-12-20T05:50:01;5.70;;;1.60;;
2748;SDS011;1382;52.142;11.618;2023-12-20T05:52:28;6.33;;;1.40;;
2748;SDS011;1382;52.142;11.618;2023-12-20T05:54:55;2.73;;;1.20;;
2748;SDS011;1382;52.142;11.618;2023-12-20T05:57:22;6.13;;;1.47;;
2748;SDS011;1382;52.142;11.618;2023-12-20T05:59:49;7.43;;;1.40;;
2748;SDS011;1382;52.142;11.618;2023-12-20T06:02:16;5.67;;;1.53;;
2748;SDS011;1382;52.142;11.618;2023-12-20T06:04:44;7.53;;;1.60;;
2748;SDS011;1382;52.142;11.618;2023-12-20T06:07:13;8.13;;;1.30;;
2748;SDS011;1382;52.142;11.618;2023-12-20T06:09:42;2.50;;;1.20;;
2748;SDS011;1382;52.142;11.618;2023-12-20T06:12:09;6.47;;;1.10;;
2748;SDS011;1382;52.142;11.618;2023-12-20T06:14:36;13.47;;;1.67;;
2748;SDS011;1382;52.142;11.618;2023-12-20T06:17:02;3.77;;;1.57;;
2748;SDS011;1382;52.142;11.618;2023-12-20T06:19:29;4.30;;;2.33;;
2748;SDS011;1382;52.142;11.618;2023-12-20T06:21:56;6.23;;;1.70;;
2748;SDS011;1382;52.142;11.618;2023-12-20T06:24:24;7.80;;;2.27;;
2748;SDS011;1382;52.142;11.618;2023-12-20T06:26:51;2.53;;;1.27;;
2748;SDS011;1382;52.142;11.618;2023-12-20T06:29:18;3.17;;;1.13;;
2748;SDS011;1382;52.142;11.618;2023-12-20T06:31:45;4.83;;;1.33;;
2748;SDS011;1382;52.142;11.618;2023-12-20T06:34:12;3.03;;;1.00;;
2748;SDS011;1382;52.142;11.618;2023-12-20T06:36:39;4.43;;;1.07;;
2748;SDS011;1382;52.142;11.618;2023-12-20T06:39:06;2.20;;;0.80;;
2748;SDS011;1382;52.142;11.618;2023-12-20T06:41:34;3.80;;;1.10;;
2748;SDS011;1382;52.142;11.618;2023-12-20T06:44:01;5.63;;;1.37;;
2748;SDS011;1382;52.142;11.618;2023-12-20T06:46:28;8.20;;;1.17;;
2748;SDS011;1382;52.142;11.618;2023-12-20T06:48:55;2.73;;;1.23;;
2748;SDS011;1382;52.142;11.618;2023-12-20T06:51:22;9.00;;;2.50;;
2748;SDS011;1382;52.142;11.618;2023-12-20T06:53:49;6.43;;;1.43;;
2748;SDS011;1382;52.142;11.618;2023-12-20T06:56:16;4.23;;;1.10;;
2748;SDS011;1382;52.142;11.618;2023-12-20T06:58:46;3.60;;;1.10;;
2748;SDS011;1382;52.142;11.618;2023-12-20T07:01:13;2.00;;;0.93;;
2748;SDS011;1382;52.142;11.618;2023-12-20T07:03:41;1.93;;;1.43;;
2748;SDS011;1382;52.142;11.618;2023-12-20T07:06:08;3.20;;;0.90;;
2748;SDS011;1382;52.142;11.618;2023-12-20T07:08:35;9.60;;;1.43;;
2748;SDS011;1382;52.142;11.618;2023-12-20T07:11:01;1.53;;;1.20;;
2748;SDS011;1382;52.142;11.618;2023-12-20T07:13:29;7.47;;;1.20;;
2748;SDS011;1382;52.142;11.618;2023-12-20T07:15:58;8.00;;;1.57;;
2748;SDS011;1382;52.142;11.618;2023-12-20T07:18:25;3.03;;;1.20;;
2748;SDS011;1382;52.142;11.618;2023-12-20T07:20:52;7.90;;;1.50;;
2748;SDS011;1382;52.142;11.618;2023-12-20T07:23:19;3.50;;;1.53;;
2748;SDS011;1382;52.142;11.618;2023-12-20T07:25:46;7.07;;;1.60;;
2748;SDS011;1382;52.142;11.618;2023-12-20T07:28:13;6.93;;;1.50;;
2748;SDS011;1382;52.142;11.618;2023-12-20T07:30:39;4.60;;;1.30;;
2748;SDS011;1382;52.142;11.618;2023-12-20T07:33:08;3.07;;;1.40;;
2748;SDS011;1382;52.142;11.618;2023-12-20T07:35:37;6.20;;;1.37;;
2748;SDS011;1382;52.142;11.618;2023-12-20T07:38:04;5.03;;;1.63;;
2748;SDS011;1382;52.142;11.618;2023-12-20T07:40:42;5.80;;;2.27;;
2748;SDS011;1382;52.142;11.618;2023-12-20T07:43:18;4.50;;;1.80;;
2748;SDS011;1382;52.142;11.618;2023-12-20T07:45:45;5.10;;;2.10;;
2748;SDS011;1382;52.142;11.618;2023-12-20T07:48:14;4.47;;;1.87;;
2748;SDS011;1382;52.142;11.618;2023-12-20T07:50:41;8.37;;;2.50;;
2748;SDS011;1382;52.142;11.618;2023-12-20T07:53:08;11.53;;;1.97;;
2748;SDS011;1382;52.142;11.618;2023-12-20T07:55:37;7.83;;;2.30;;
2748;SDS011;1382;52.142;11.618;2023-12-20T07:58:04;3.83;;;1.90;;
2748;SDS011;1382;52.142;11.618;2023-12-20T08:00:31;9.57;;;2.70;;
2748;SDS011;1382;52.142;11.618;2023-12-20T08:02:57;11.83;;;3.07;;
2748;SDS011;1382;52.142;11.618;2023-12-20T08:05:26;9.53;;;1.93;;
2748;SDS011;1382;52.142;11.618;2023-12-20T08:07:53;5.10;;;2.20;;
2748;SDS011;1382;52.142;11.618;2023-12-20T08:10:19;11.03;;;3.10;;
2748;SDS011;1382;52.142;11.618;2023-12-20T08:12:46;6.33;;;2.53;;
2748;SDS011;1382;52.142;11.618;2023-12-20T08:15:13;10.77;;;3.43;;
2748;SDS011;1382;52.142;11.618;2023-12-20T08:17:40;8.63;;;2.77;;
2748;SDS011;1382;52.142;11.618;2023-12-20T08:20:07;10.70;;;2.33;;
2748;SDS011;1382;52.142;11.618;2023-12-20T08:22:36;10.77;;;3.07;;
2748;SDS011;1382;52.142;11.618;2023-12-20T08:25:04;10.50;;;2.27;;
2748;SDS011;1382;52.142;11.618;2023-12-20T08:27:31;9.37;;;2.73;;
2748;SDS011;1382;52.142;11.618;2023-12-20T08:29:58;10.80;;;3.13;;
2748;SDS011;1382;52.142;11.618;2023-12-20T08:32:25;5.73;;;1.80;;
2748;SDS011;1382;52.142;11.618;2023-12-20T08:34:52;11.97;;;2.37;;
2748;SDS011;1382;52.142;11.618;2023-12-20T08:37:19;7.90;;;2.33;;
2748;SDS011;1382;52.142;11.618;2023-12-20T08:39:47;11.67;;;2.83;;
2748;SDS011;1382;52.142;11.618;2023-12-20T08:42:14;7.97;;;3.70;;
2748;SDS011;1382;52.142;11.618;2023-12-20T08:44:41;6.93;;;2.47;;
2748;SDS011;1382;52.142;11.618;2023-12-20T08:47:07;10.23;;;1.90;;
2748;SDS011;1382;52.142;11.618;2023-12-20T08:49:34;10.43;;;3.40;;
2748;SDS011;1382;52.142;11.618;2023-12-20T08:52:02;7.63;;;2.57;;
2748;SDS011;1382;52.142;11.618;2023-12-20T08:54:29;3.27;;;2.10;;
2748;SDS011;1382;52.142;11.618;2023-12-20T08:56:57;8.20;;;3.23;;
2748;SDS011;1382;52.142;11.618;2023-12-20T08:59:25;14.20;;;3.40;;
2748;SDS011;1382;52.142;11.618;2023-12-20T09:01:51;12.27;;;3.07;;
2748;SDS011;1382;52.142;11.618;2023-12-20T09:04:18;6.90;;;1.60;;
2748;SDS011;1382;52.142;11.618;2023-12-20T09:06:45;5.63;;;2.20;;
2748;SDS011;1382;52.142;11.618;2023-12-20T09:09:13;8.20;;;2.17;;
2748;SDS011;1382;52.142;11.618;2023-12-20T09:11:39;8.50;;;2.00;;
2748;SDS011;1382;52.142;11.618;2023-12-20T09:14:08;10.30;;;2.80;;
2748;SDS011;1382;52.142;11.618;2023-12-20T09:16:35;9.03;;;3.00;;
2748;SDS011;1382;52.142;11.618;2023-12-20T09:19:02;5.77;;;2.67;;
2748;SDS011;1382;52.142;11.618;2023-12-20T09:21:29;14.80;;;2.90;;
2748;SDS011;1382;52.142;11.618;2023-12-20T09:23:59;13.77;;;3.10;;
2748;SDS011;1382;52.142;11.618;2023-12-20T09:26:27;15.03;;;2.37;;
2748;SDS011;1382;52.142;11.618;2023-12-20T09:28:56;8.43;;;2.70;;
2748;SDS011;1382;52.142;11.618;2023-12-20T09:31:25;8.10;;;3.13;;
2748;SDS011;1382;52.142;11.618;2023-12-20T09:33:52;9.20;;;3.23;;
2748;SDS011;1382;52.142;11.618;2023-12-20T09:36:19;6.30;;;2.87;;
2748;SDS011;1382;52.142;11.618;2023-12-20T09:38:46;7.17;;;1.87;;
2748;SDS011;1382;52.142;11.618;2023-12-20T09:41:13;3.97;;;2.20;;
2748;SDS011;1382;52.142;11.618;2023-12-20T09:43:39;8.67;;;2.60;;
2748;SDS011;1382;52.142;11.618;2023-12-20T09:46:07;7.30;;;2.30;;
2748;SDS011;1382;52.142;11.618;2023-12-20T09:48:39;9.37;;;2.03;;
2748;SDS011;1382;52.142;11.618;2023-12-20T09:51:07;8.47;;;3.00;;
2748;SDS011;1382;52.142;11.618;2023-12-20T09:53:34;14.20;;;2.70;;
2748;SDS011;1382;52.142;11.618;2023-12-20T09:56:03;7.00;;;1.90;;
2748;SDS011;1382;52.142;11.618;2023-12-20T09:58:32;10.47;;;3.17;;
2748;SDS011;1382;52.142;11.618;2023-12-20T10:00:58;5.63;;;2.07;;
2748;SDS011;1382;52.142;11.618;2023-12-20T10:03:26;10.47;;;2.70;;
2748;SDS011;1382;52.142;11.618;2023-12-20T10:05:56;5.80;;;2.63;;
2748;SDS011;1382;52.142;11.618;2023-12-20T10:08:24;8.07;;;2.80;;
2748;SDS011;1382;52.142;11.618;2023-12-20T10:10:51;8.30;;;3.10;;
2748;SDS011;1382;52.142;11.618;2023-12-20T10:13:18;14.33;;;3.40;;
2748;SDS011;1382;52.142;11.618;2023-12-20T10:15:45;8.87;;;2.67;;
2748;SDS011;1382;52.142;11.618;2023-12-20T10:18:13;10.47;;;2.73;;
2748;SDS011;1382;52.142;11.618;2023-12-20T10:20:40;9.57;;;2.37;;
2748;SDS011;1382;52.142;11.618;2023-12-20T10:23:11;16.20;;;2.00;;
2748;SDS011;1382;52.142;11.618;2023-12-20T10:25:38;2.57;;;1.73;;
2748;SDS011;1382;52.142;11.618;2023-12-20T10:28:09;6.57;;;2.10;;
2748;SDS011;1382;52.142;11.618;2023-12-20T10:30:37;4.43;;;2.30;;
2748;SDS011;1382;52.142;11.618;2023-12-20T10:33:05;7.00;;;2.77;;
2748;SDS011;1382;52.142;11.618;2023-12-20T10:35:32;11.90;;;3.33;;
2748;SDS011;1382;52.142;11.618;2023-12-20T10:37:59;7.50;;;2.83;;
2748;SDS011;1382;52.142;11.618;2023-12-20T10:40:31;12.57;;;3.50;;
2748;SDS011;1382;52.142;11.618;2023-12-20T10:43:00;16.27;;;3.07;;
2748;SDS011;1382;52.142;11.618;2023-12-20T10:45:40;5.43;;;2.60;;
2748;SDS011;1382;52.142;11.618;2023-12-20T10:48:09;5.90;;;2.13;;
2748;SDS011;1382;52.142;11.618;2023-12-20T10:50:37;6.80;;;2.30;;
2748;SDS011;1382;52.142;11.618;2023-12-20T10:53:05;4.13;;;2.50;;
2748;SDS011;1382;52.142;11.618;2023-12-20T10:55:34;7.67;;;3.20;;
2748;SDS011;1382;52.142;11.618;2023-12-20T10:58:02;7.73;;;2.67;;
2748;SDS011;1382;52.142;11.618;2023-12-20T11:00:35;5.77;;;2.50;;
2748;SDS011;1382;52.142;11.618;2023-12-20T11:03:06;6.10;;;2.83;;
2748;SDS011;1382;52.142;11.618;2023-12-20T11:05:36;13.57;;;2.90;;
2748;SDS011;1382;52.142;11.618;2023-12-20T11:08:12;4.47;;;2.17;;
2748;SDS011;1382;52.142;11.618;2023-12-20T11:10:47;10.23;;;3.47;;
2748;SDS011;1382;52.142;11.618;2023-12-20T11:13:21;9.60;;;3.10;;
2748;SDS011;1382;52.142;11.618;2023-12-20T11:15:52;9.50;;;2.80;;
2748;SDS011;1382;52.142;11.618;2023-12-20T11:18:19;21.87;;;4.07;;
2748;SDS011;1382;52.142;11.618;2023-12-20T11:20:52;12.43;;;2.90;;
2748;SDS011;1382;52.142;11.618;2023-12-20T11:23:21;7.70;;;3.53;;
2748;SDS011;1382;52.142;11.618;2023-12-20T11:25:52;8.43;;;3.17;;
2748;SDS011;1382;52.142;11.618;2023-12-20T11:28:20;10.30;;;3.50;;
2748;SDS011;1382;52.142;11.618;2023-12-20T11:30:50;8.53;;;3.20;;
2748;SDS011;1382;52.142;11.618;2023-12-20T11:33:21;5.27;;;2.73;;
2748;SDS011;1382;52.142;11.618;2023-12-20T11:35:49;5.53;;;2.50;;
2748;SDS011;1382;52.142;11.618;2023-12-20T11:38:16;4.03;;;2.47;;
2748;SDS011;1382;52.142;11.618;2023-12-20T11:40:47;7.00;;;3.00;;
2748;SDS011;1382;52.142;11.618;2023-12-20T11:43:29;6.20;;;3.30;;
2748;SDS011;1382;52.142;11.618;2023-12-20T11:45:59;7.87;;;3.20;;
2748;SDS011;1382;52.142;11.618;2023-12-20T11:51:16;4.87;;;2.27;;
2748;SDS011;1382;52.142;11.618;2023-12-20T11:53:43;5.20;;;2.33;;
2748;SDS011;1382;52.142;11.618;2023-12-20T11:56:12;4.80;;;2.50;;
2748;SDS011;1382;52.142;11.618;2023-12-20T11:58:39;3.23;;;2.67;;
2748;SDS011;1382;52.142;11.618;2023-12-20T12:01:06;5.47;;;3.00;;
2748;SDS011;1382;52.142;11.618;2023-12-20T12:03:36;4.13;;;2.40;;
2748;SDS011;1382;52.142;11.618;2023-12-20T12:06:04;5.60;;;2.27;;
2748;SDS011;1382;52.142;11.618;2023-12-20T12:08:31;8.20;;;2.50;;
2748;SDS011;1382;52.142;11.618;2023-12-20T12:11:01;6.47;;;3.47;;
2748;SDS011;1382;52.142;11.618;2023-12-20T12:13:35;7.20;;;3.00;;
2748;SDS011;1382;52.142;11.618;2023-12-20T12:16:02;5.77;;;2.83;;
2748;SDS011;1382;52.142;11.618;2023-12-20T12:18:31;9.63;;;3.10;;
2748;SDS011;1382;52.142;11.618;2023-12-20T12:21:01;4.83;;;2.20;;
2748;SDS011;1382;52.142;11.618;2023-12-20T12:23:38;6.90;;;2.50;;
2748;SDS011;1382;52.142;11.618;2023-12-20T12:26:07;3.90;;;2.53;;
2748;SDS011;1382;52.142;11.618;2023-12-20T12:28:35;11.37;;;3.37;;
2748;SDS011;1382;52.142;11.618;2023-12-20T12:31:03;6.23;;;2.67;;
2748;SDS011;1382;52.142;11.618;2023-12-20T12:33:30;4.90;;;2.27;;
2748;SDS011;1382;52.142;11.618;2023-12-20T12:35:57;4.80;;;2.50;;
2748;SDS011;1382;52.142;11.618;2023-12-20T12:38:24;4.97;;;1.90;;
2748;SDS011;1382;52.142;11.618;2023-12-20T12:40:51;7.53;;;2.83;;
2748;SDS011;1382;52.142;11.618;2023-12-20T12:43:20;4.03;;;2.10;;
2748;SDS011;1382;52.142;11.618;2023-12-20T12:45:51;8.03;;;3.10;;
2748;SDS011;1382;52.142;11.618;2023-12-20T12:48:18;3.50;;;2.33;;
2748;SDS011;1382;52.142;11.618;2023-12-20T12:50:45;6.10;;;2.80;;
2748;SDS011;1382;52.142;11.618;2023-12-20T12:53:12;4.93;;;3.07;;
2748;SDS011;1382;52.142;11.618;2023-12-20T12:55:39;8.37;;;3.07;;
2748;SDS011;1382;52.142;11.618;2023-12-20T12:58:06;6.47;;;3.33;;
2748;SDS011;1382;52.142;11.618;2023-12-20T13:00:33;3.73;;;2.60;;
2748;SDS011;1382;52.142;11.618;2023-12-20T13:03:01;8.30;;;2.53;;
2748;SDS011;1382;52.142;11.618;2023-12-20T13:05:28;6.40;;;3.23;;
2748;SDS011;1382;52.142;11.618;2023-12-20T13:08:06;4.90;;;1.90;;
2748;SDS011;1382;52.142;11.618;2023-12-20T13:10:32;6.17;;;2.70;;
2748;SDS011;1382;52.142;11.618;2023-12-20T13:12:59;5.17;;;1.90;;
2748;SDS011;1382;52.142;11.618;2023-12-20T13:15:26;4.43;;;2.70;;
2748;SDS011;1382;52.142;11.618;2023-12-20T13:17:53;7.13;;;3.10;;
2748;SDS011;1382;52.142;11.618;2023-12-20T13:20:22;5.90;;;2.83;;
2748;SDS011;1382;52.142;11.618;2023-12-20T13:22:49;6.27;;;3.57;;
2748;SDS011;1382;52.142;11.618;2023-12-20T13:25:15;4.03;;;2.57;;
2748;SDS011;1382;52.142;11.618;2023-12-20T13:27:42;5.93;;;2.60;;
2748;SDS011;1382;52.142;11.618;2023-12-20T13:30:10;5.10;;;2.30;;
2748;SDS011;1382;52.142;11.618;2023-12-20T13:32:37;5.73;;;3.13;;
2748;SDS011;1382;52.142;11.618;2023-12-20T13:35:04;5.93;;;2.30;;
2748;SDS011;1382;52.142;11.618;2023-12-20T13:37:33;3.83;;;2.10;;
2748;SDS011;1382;52.142;11.618;2023-12-20T13:40:00;3.90;;;2.07;;
2748;SDS011;1382;52.142;11.618;2023-12-20T13:42:27;3.73;;;1.83;;
2748;SDS011;1382;52.142;11.618;2023-12-20T13:44:54;5.77;;;2.07;;
2748;SDS011;1382;52.142;11.618;2023-12-20T13:47:20;10.40;;;1.40;;
2748;SDS011;1382;52.142;11.618;2023-12-20T13:49:50;4.53;;;1.80;;
2748;SDS011;1382;52.142;11.618;2023-12-20T13:52:17;3.20;;;1.47;;
2748;SDS011;1382;52.142;11.618;2023-12-20T13:54:45;5.23;;;2.00;;
2748;SDS011;1382;52.142;11.618;2023-12-20T13:57:12;4.43;;;1.73;;
2748;SDS011;1382;52.142;11.618;2023-12-20T13:59:56;3.67;;;1.73;;
2748;SDS011;1382;52.142;11.618;2023-12-20T14:02:23;3.73;;;1.80;;
2748;SDS011;1382;52.142;11.618;2023-12-20T14:04:50;4.97;;;1.83;;
2748;SDS011;1382;52.142;11.618;2023-12-20T14:07:17;3.37;;;1.43;;
2748;SDS011;1382;52.142;11.618;2023-12-20T14:09:46;6.43;;;1.20;;
2748;SDS011;1382;52.142;11.618;2023-12-20T14:12:13;9.00;;;2.57;;
2748;SDS011;1382;52.142;11.618;2023-12-20T14:14:40;3.40;;;1.40;;
2748;SDS011;1382;52.142;11.618;2023-12-20T14:17:07;5.40;;;2.20;;
2748;SDS011;1382;52.142;11.618;2023-12-20T14:19:34;3.00;;;1.90;;
2748;SDS011;1382;52.142;11.618;2023-12-20T14:22:01;5.43;;;1.50;;
2748;SDS011;1382;52.142;11.618;2023-12-20T14:24:28;4.30;;;1.57;;
2748;SDS011;1382;52.142;11.618;2023-12-20T14:26:56;3.27;;;1.73;;
2748;SDS011;1382;52.142;11.618;2023-12-20T14:29:23;4.53;;;0.93;;
2748;SDS011;1382;52.142;11.618;2023-12-20T14:31:52;3.40;;;1.60;;
2748;SDS011;1382;52.142;11.618;2023-12-20T14:34:19;8.40;;;1.73;;
2748;SDS011;1382;52.142;11.618;2023-12-20T14:36:48;4.20;;;1.13;;
2748;SDS011;1382;52.142;11.618;2023-12-20T14:39:15;4.60;;;0.77;;
2748;SDS011;1382;52.142;11.618;2023-12-20T14:41:42;2.13;;;1.00;;
2748;SDS011;1382;52.142;11.618;2023-12-20T14:44:10;7.63;;;1.10;;
2748;SDS011;1382;52.142;11.618;2023-12-20T14:46:37;3.57;;;1.10;;
2748;SDS011;1382;52.142;11.618;2023-12-20T14:49:08;6.10;;;1.10;;
2748;SDS011;1382;52.142;11.618;2023-12-20T14:51:35;2.87;;;1.23;;
2748;SDS011;1382;52.142;11.618;2023-12-20T14:54:04;3.73;;;1.60;;
2748;SDS011;1382;52.142;11.618;2023-12-20T14:56:31;2.67;;;1.03;;
2748;SDS011;1382;52.142;11.618;2023-12-20T14:58:58;3.03;;;1.00;;
2748;SDS011;1382;52.142;11.618;2023-12-20T15:01:30;5.30;;;1.83;;
2748;SDS011;1382;52.142;11.618;2023-12-20T15:03:57;3.47;;;1.37;;
2748;SDS011;1382;52.142;11.618;2023-12-20T15:06:24;5.20;;;1.47;;